createdAt,value
2018-08-20T00:02:07.460Z,12.47
2018-08-20T00:04:41.216Z,10.87
2018-08-20T00:07:09.932Z,18.50
2018-08-20T00:09:43.783Z,11.77
2018-08-20T00:12:12.421Z,12.73
2018-08-20T00:14:41.669Z,14.07
2018-08-20T00:17:10.347Z,18.43
2018-08-20T00:19:41.139Z,13.40
2018-08-20T00:22:10.196Z,12.53
2018-08-20T00:24:38.837Z,12.43
2018-08-20T00:27:07.572Z,14.90
2018-08-20T00:29:38.963Z,10.97
2018-08-20T00:32:07.680Z,15.63
2018-08-20T00:34:36.384Z,15.43
2018-08-20T00:37:05.858Z,14.87
2018-08-20T00:39:34.499Z,11.37
2018-08-20T00:42:03.168Z,8.87
2018-08-20T00:44:31.846Z,6.57
2018-08-20T00:47:00.471Z,14.17
2018-08-20T00:49:29.115Z,10.37
2018-08-20T00:51:57.797Z,14.77
2018-08-20T00:54:26.448Z,10.07
2018-08-20T00:56:55.560Z,11.93
2018-08-20T00:59:24.187Z,10.83
2018-08-20T01:01:52.812Z,13.23
2018-08-20T01:04:21.486Z,12.63
2018-08-20T01:06:50.544Z,10.70
2018-08-20T01:09:19.216Z,9.13
2018-08-20T01:11:47.876Z,12.80
2018-08-20T01:14:16.522Z,12.00
2018-08-20T01:16:45.176Z,16.73
2018-08-20T01:19:14.983Z,11.50
2018-08-20T01:21:43.719Z,14.97
2018-08-20T01:24:12.433Z,12.43
2018-08-20T01:26:41.111Z,13.27
2018-08-20T01:29:09.763Z,12.03
2018-08-20T01:31:38.428Z,12.07
2018-08-20T01:34:07.139Z,14.40
2018-08-20T01:36:35.792Z,12.93
2018-08-20T01:39:05.483Z,10.47
2018-08-20T01:41:34.143Z,9.73
2018-08-20T01:44:02.793Z,11.67
2018-08-20T01:46:31.443Z,13.70
2018-08-20T01:49:00.117Z,11.93
2018-08-20T01:51:29.820Z,11.10
2018-08-20T01:53:58.468Z,14.13
2018-08-20T01:56:27.116Z,14.07
2018-08-20T01:58:55.788Z,11.37
2018-08-20T02:18:09.808Z,12.03
2018-08-20T02:20:38.480Z,10.23
2018-08-20T02:23:07.771Z,10.80
2018-08-20T02:25:37.411Z,13.27
2018-08-20T02:28:06.744Z,8.33
2018-08-20T02:30:35.448Z,9.93
2018-08-20T02:33:04.212Z,10.83
2018-08-20T02:35:32.844Z,13.20
2018-08-20T02:38:01.507Z,11.50
2018-08-20T02:40:30.812Z,9.37
2018-08-20T02:43:00.413Z,6.60
2018-08-20T02:45:29.073Z,10.87
2018-08-20T02:47:57.731Z,6.87
2018-08-20T02:50:26.392Z,11.97
2018-08-20T02:52:55.138Z,9.30
2018-08-20T02:55:23.854Z,10.47
2018-08-20T02:57:52.530Z,11.93
2018-08-20T03:00:21.231Z,9.63
2018-08-20T03:02:49.888Z,9.87
2018-08-20T03:05:19.165Z,15.50
2018-08-20T03:07:47.833Z,7.53
2018-08-20T03:10:16.516Z,3.73
2018-08-20T03:12:45.184Z,7.73
2018-08-20T03:15:13.831Z,8.27
2018-08-20T03:17:42.462Z,13.53
2018-08-20T03:20:11.191Z,10.87
2018-08-20T03:22:39.811Z,10.57
2018-08-20T03:25:08.832Z,11.33
2018-08-20T03:27:37.616Z,10.30
2018-08-20T03:30:07.755Z,9.10
2018-08-20T03:32:36.636Z,8.57
2018-08-20T03:35:06.876Z,11.90
2018-08-20T03:37:35.611Z,14.53
2018-08-20T03:40:04.533Z,8.10
2018-08-20T03:42:33.204Z,9.63
2018-08-20T03:45:01.869Z,11.83
2018-08-20T03:47:30.662Z,10.07
2018-08-20T03:49:59.316Z,10.33
2018-08-20T03:52:28.596Z,13.60
2018-08-20T03:54:57.264Z,11.07
2018-08-20T03:57:25.944Z,13.57
2018-08-20T03:59:54.600Z,12.77
2018-08-20T04:02:23.254Z,12.57
2018-08-20T04:04:51.899Z,9.43
2018-08-20T04:07:20.550Z,9.33
2018-08-20T04:09:49.163Z,10.67
2018-08-20T04:12:17.783Z,5.80
2018-08-20T04:14:46.411Z,6.03
2018-08-20T04:17:15.048Z,10.10
2018-08-20T04:19:43.700Z,7.77
2018-08-20T04:22:12.346Z,5.63
2018-08-20T04:24:40.984Z,8.90
2018-08-20T04:27:09.831Z,13.13
2018-08-20T04:29:39.039Z,8.47
2018-08-20T04:32:07.721Z,10.03
2018-08-20T04:34:36.348Z,8.83
2018-08-20T04:37:05.077Z,8.37
2018-08-20T04:39:33.719Z,9.23
2018-08-20T04:42:02.432Z,14.27
2018-08-20T04:44:31.027Z,20.93
2018-08-20T04:46:59.684Z,13.50
2018-08-20T04:49:28.331Z,13.90
2018-08-20T04:51:56.961Z,15.27
2018-08-20T04:54:25.613Z,11.67
2018-08-20T04:56:54.292Z,10.93
2018-08-20T04:59:22.954Z,12.03
2018-08-20T05:01:51.708Z,14.30
2018-08-20T05:04:20.363Z,12.80
2018-08-20T05:06:49.030Z,14.13
2018-08-20T05:09:17.792Z,12.93
2018-08-20T05:11:46.477Z,11.47
2018-08-20T05:14:15.137Z,13.87
2018-08-20T05:16:43.803Z,12.27
2018-08-20T05:19:12.442Z,16.47
2018-08-20T05:21:41.115Z,14.57
2018-08-20T05:24:09.763Z,16.63
2018-08-20T05:26:38.478Z,15.67
2018-08-20T05:29:07.649Z,14.40
2018-08-20T05:31:36.344Z,16.33
2018-08-20T05:34:05.020Z,15.97
2018-08-20T05:36:34.673Z,14.30
2018-08-20T05:39:03.587Z,17.07
2018-08-20T05:41:32.233Z,14.07
2018-08-20T05:44:01.815Z,20.00
2018-08-20T05:46:30.501Z,16.87
2018-08-20T05:48:59.147Z,13.20
2018-08-20T05:51:27.788Z,15.57
2018-08-20T05:53:57.143Z,18.03
2018-08-20T05:56:25.829Z,17.53
2018-08-20T05:58:54.500Z,18.40
2018-08-20T06:01:23.212Z,20.37
2018-08-20T06:03:52.185Z,21.37
2018-08-20T06:06:20.878Z,25.80
2018-08-20T06:08:49.538Z,16.87
2018-08-20T06:11:18.216Z,16.30
2018-08-20T06:13:46.972Z,15.57
2018-08-20T06:16:15.619Z,15.70
2018-08-20T06:18:44.363Z,18.23
2018-08-20T06:21:13.026Z,22.03
2018-08-20T06:23:41.704Z,18.50
2018-08-20T06:26:10.456Z,16.13
2018-08-20T06:28:39.265Z,19.03
2018-08-20T06:31:07.919Z,12.23
2018-08-20T06:33:36.922Z,18.60
2018-08-20T06:36:06.527Z,14.30
2018-08-20T06:38:35.886Z,15.70
2018-08-20T06:41:04.635Z,15.27
2018-08-20T06:43:33.311Z,13.20
2018-08-20T07:02:44.654Z,15.00
2018-08-20T07:05:13.451Z,19.87
2018-08-20T07:07:43.315Z,16.80
2018-08-20T07:10:14.096Z,14.63
2018-08-20T07:12:43.051Z,16.20
2018-08-20T07:15:13.628Z,13.23
2018-08-20T07:17:42.462Z,17.03
2018-08-20T07:20:12.753Z,17.53
2018-08-20T07:22:42.613Z,8.83
2018-08-20T07:25:12.964Z,13.63
2018-08-20T07:27:42.465Z,11.73
2018-08-20T07:30:11.995Z,13.07
2018-08-20T07:32:40.806Z,14.13
2018-08-20T07:35:09.833Z,17.63
2018-08-20T07:37:38.613Z,15.70
2018-08-20T07:40:08.283Z,16.83
2018-08-20T07:42:37.139Z,19.23
2018-08-20T07:45:06.062Z,16.00
2018-08-20T07:47:34.764Z,22.87
2018-08-20T07:50:03.617Z,18.10
2018-08-20T07:52:32.337Z,18.43
2018-08-20T07:55:00.982Z,14.10
2018-08-20T07:57:29.720Z,18.90
2018-08-20T07:59:58.632Z,18.83
2018-08-20T08:02:27.405Z,10.60
2018-08-20T08:04:56.100Z,17.07
2018-08-20T08:07:25.488Z,17.03
2018-08-20T08:09:54.295Z,14.33
2018-08-20T08:12:23.066Z,17.13
2018-08-20T08:14:51.736Z,13.70
2018-08-20T08:17:20.440Z,15.00
2018-08-20T08:19:50.236Z,13.20
2018-08-20T08:22:19.737Z,14.03
2018-08-20T08:24:48.413Z,10.03
2018-08-20T08:27:17.958Z,18.53
2018-08-20T08:29:46.620Z,15.17
2018-08-20T08:32:15.432Z,12.30
2018-08-20T08:34:44.153Z,12.20
2018-08-20T08:37:12.987Z,12.47
2018-08-20T08:39:41.834Z,11.67
2018-08-20T08:42:10.530Z,11.57
2018-08-20T08:44:39.260Z,11.47
2018-08-20T08:47:08.099Z,13.73
2018-08-20T08:49:36.812Z,12.00
2018-08-20T08:52:05.916Z,9.83
2018-08-20T08:54:34.646Z,13.73
2018-08-20T08:57:03.420Z,12.07
2018-08-20T08:59:32.606Z,12.67
2018-08-20T09:02:01.307Z,11.73
2018-08-20T09:04:30.673Z,12.73
2018-08-20T09:06:59.456Z,17.10
2018-08-20T09:09:28.247Z,14.40
2018-08-20T09:11:56.986Z,8.53
2018-08-20T09:14:25.707Z,11.07
2018-08-20T09:16:54.433Z,11.03
2018-08-20T09:19:23.345Z,15.63
2018-08-20T09:21:52.212Z,9.63
2018-08-20T09:24:21.107Z,11.50
2018-08-20T09:26:49.895Z,15.77
2018-08-20T09:29:18.643Z,13.00
2018-08-20T09:31:47.332Z,11.90
2018-08-20T09:34:16.151Z,13.30
2018-08-20T09:36:44.961Z,13.87
2018-08-20T09:39:13.684Z,8.57
2018-08-20T09:41:42.492Z,9.73
2018-08-20T09:44:11.228Z,11.73
2018-08-20T09:46:40.101Z,7.47
2018-08-20T09:49:09.637Z,11.63
2018-08-20T09:51:38.357Z,8.03
2018-08-20T09:54:07.049Z,9.20
2018-08-20T09:56:36.329Z,8.33
2018-08-20T09:59:05.166Z,12.37
2018-08-20T10:01:33.932Z,7.60
2018-08-20T10:04:02.725Z,10.23
2018-08-20T10:06:31.403Z,11.40
2018-08-20T10:09:00.151Z,9.73
2018-08-20T10:11:28.912Z,16.93
2018-08-20T10:13:57.752Z,7.53
2018-08-20T10:16:26.504Z,7.57
2018-08-20T10:18:55.291Z,10.10
2018-08-20T10:21:24.421Z,10.33
2018-08-20T10:23:53.106Z,9.93
2018-08-20T10:26:21.880Z,6.50
2018-08-20T10:28:50.629Z,12.67
2018-08-20T10:31:19.390Z,12.50
2018-08-20T10:33:48.101Z,11.40
2018-08-20T10:36:16.815Z,10.40
2018-08-20T10:38:45.617Z,10.30
2018-08-20T10:41:15.040Z,8.93
2018-08-20T10:43:43.852Z,8.63
2018-08-20T10:46:17.556Z,11.83
2018-08-20T10:48:46.307Z,13.10
2018-08-20T10:51:15.031Z,11.00
2018-08-20T10:53:43.840Z,12.60
2018-08-20T10:56:12.658Z,10.17
2018-08-20T10:58:41.419Z,9.60
2018-08-20T11:01:10.198Z,12.00
2018-08-20T11:03:43.420Z,12.43
2018-08-20T11:06:12.182Z,7.87
2018-08-20T11:08:41.261Z,7.77
2018-08-20T11:11:09.930Z,11.50
2018-08-20T11:13:38.803Z,5.93
2018-08-20T11:16:07.773Z,9.43
2018-08-20T11:18:36.674Z,6.17
2018-08-20T11:21:05.977Z,4.90
2018-08-20T11:23:34.668Z,5.37
2018-08-20T11:26:03.528Z,4.73
2018-08-20T11:28:32.214Z,3.60
2018-08-20T11:31:01.252Z,3.57
2018-08-20T11:33:29.975Z,2.47
2018-08-20T11:35:59.120Z,2.90
2018-08-20T11:38:27.992Z,3.20
2018-08-20T11:40:56.732Z,3.23
2018-08-20T11:43:25.428Z,2.90
2018-08-20T11:45:54.137Z,1.60
2018-08-20T11:48:22.950Z,3.93
2018-08-20T11:50:51.710Z,3.13
2018-08-20T11:53:20.386Z,2.03
2018-08-20T11:55:49.167Z,1.83
2018-08-20T11:58:18.519Z,3.40
2018-08-20T12:00:47.855Z,2.77
2018-08-20T12:03:16.584Z,4.67
2018-08-20T12:05:45.890Z,3.90
2018-08-20T12:08:14.621Z,5.27
2018-08-20T12:10:43.378Z,3.60
2018-08-20T12:13:12.082Z,4.17
2018-08-20T12:15:41.340Z,2.13
2018-08-20T12:18:10.100Z,2.10
2018-08-20T12:20:38.943Z,2.63
2018-08-20T12:23:07.763Z,2.00
2018-08-20T12:25:36.449Z,5.73
2018-08-20T12:28:06.248Z,2.57
2018-08-20T12:30:34.989Z,4.40
2018-08-20T12:33:04.560Z,1.73
2018-08-20T12:35:33.325Z,3.27
2018-08-20T12:38:02.051Z,3.97
2018-08-20T12:40:30.841Z,4.93
2018-08-20T12:42:59.520Z,4.20
2018-08-20T12:45:28.344Z,7.10
2018-08-20T12:47:57.051Z,4.80
2018-08-20T12:50:25.868Z,9.07
2018-08-20T12:52:54.893Z,4.13
2018-08-20T12:55:23.613Z,4.17
2018-08-20T12:57:54.352Z,5.50
2018-08-20T13:00:23.154Z,9.70
2018-08-20T13:02:52.282Z,4.63
2018-08-20T13:05:22.890Z,5.50
2018-08-20T13:07:51.571Z,5.07
2018-08-20T13:10:20.382Z,7.67
2018-08-20T13:12:49.150Z,4.53
2018-08-20T13:15:18.271Z,5.53
2018-08-20T13:17:48.948Z,5.40
2018-08-20T13:20:17.823Z,5.53
2018-08-20T13:22:46.492Z,3.93
2018-08-20T13:25:15.187Z,6.13
2018-08-20T13:44:26.483Z,4.43
2018-08-20T13:46:55.155Z,4.40
2018-08-20T13:49:23.844Z,6.03
2018-08-20T13:51:53.412Z,6.07
2018-08-20T13:54:22.130Z,4.30
2018-08-20T13:56:50.781Z,5.93
2018-08-20T13:59:19.460Z,7.73
2018-08-20T14:01:48.162Z,6.23
2018-08-20T14:04:16.810Z,3.37
2018-08-20T14:23:29.028Z,7.93
2018-08-20T14:25:57.761Z,8.47
2018-08-20T14:28:26.493Z,4.03
2018-08-20T14:30:55.345Z,7.17
2018-08-20T14:33:24.025Z,4.70
2018-08-20T14:35:52.765Z,5.33
2018-08-20T14:38:21.552Z,7.33
2018-08-20T14:40:50.292Z,7.13
2018-08-20T14:43:19.088Z,8.07
2018-08-20T14:45:53.032Z,7.13
2018-08-20T14:48:21.729Z,7.40
2018-08-20T14:50:50.556Z,4.57
2018-08-20T14:53:19.526Z,3.50
2018-08-20T14:55:48.253Z,4.73
2018-08-20T14:58:17.056Z,8.17
2018-08-20T15:00:45.819Z,14.33
2018-08-20T15:03:14.761Z,5.13
2018-08-20T15:05:43.424Z,8.63
2018-08-20T15:08:12.233Z,11.43
2018-08-20T15:10:41.053Z,12.87
2018-08-20T15:13:09.900Z,14.57
2018-08-20T15:15:38.800Z,12.07
2018-08-20T15:18:07.471Z,18.87
2018-08-20T15:20:36.161Z,6.63
2018-08-20T15:23:04.856Z,6.37
2018-08-20T15:25:33.497Z,8.80
2018-08-20T15:28:02.185Z,9.50
2018-08-20T15:30:30.884Z,12.43
2018-08-20T15:32:59.604Z,11.53
2018-08-20T15:35:29.387Z,5.97
2018-08-20T15:37:58.113Z,4.83
2018-08-20T15:40:26.927Z,15.07
2018-08-20T15:42:55.632Z,5.97
2018-08-20T15:45:24.342Z,7.53
2018-08-20T15:47:53.139Z,8.47
2018-08-20T15:50:21.832Z,5.33
2018-08-20T15:52:50.672Z,11.97
2018-08-20T15:55:19.416Z,9.67
2018-08-20T15:57:48.296Z,8.37
2018-08-20T16:00:17.085Z,4.40
2018-08-20T16:02:45.928Z,6.63
2018-08-20T16:05:14.773Z,7.67
2018-08-20T16:07:43.590Z,7.67
2018-08-20T16:10:13.002Z,8.10
2018-08-20T16:12:41.687Z,5.67
2018-08-20T16:15:10.756Z,7.90
2018-08-20T16:17:39.515Z,9.87
2018-08-20T16:20:08.572Z,5.70
2018-08-20T16:22:37.687Z,10.70
2018-08-20T16:25:07.799Z,9.77
2018-08-20T16:27:36.592Z,5.80
2018-08-20T16:30:08.174Z,5.77
2018-08-20T16:32:36.908Z,4.43
2018-08-20T16:35:06.079Z,5.67
2018-08-20T16:37:34.784Z,3.73
2018-08-20T16:40:03.447Z,8.07
2018-08-20T16:42:32.143Z,6.67
2018-08-20T16:45:00.863Z,7.47
2018-08-20T17:04:30.248Z,5.47
2018-08-20T17:07:00.058Z,6.30
2018-08-20T17:09:29.090Z,4.60
2018-08-20T17:11:57.822Z,6.07
2018-08-20T17:14:26.568Z,4.17
2018-08-20T17:16:55.393Z,5.43
2018-08-20T17:19:24.136Z,9.60
2018-08-20T17:21:52.783Z,8.63
2018-08-20T17:24:29.500Z,5.77
2018-08-20T17:26:59.260Z,2.87
2018-08-20T17:29:28.116Z,4.63
2018-08-20T17:31:56.879Z,3.27
2018-08-20T17:34:25.723Z,5.50
2018-08-20T17:36:54.613Z,3.93
2018-08-20T17:39:23.321Z,5.67
2018-08-20T17:41:52.192Z,3.63
2018-08-20T17:44:22.323Z,4.40
2018-08-20T17:46:51.169Z,5.77
2018-08-20T17:49:25.092Z,5.60
2018-08-20T17:51:53.761Z,3.33
2018-08-20T17:54:22.604Z,4.10
2018-08-20T17:56:51.305Z,4.63
2018-08-20T17:59:21.413Z,5.23
2018-08-20T18:01:50.168Z,3.17
2018-08-20T18:04:19.387Z,5.77
2018-08-20T18:06:51.244Z,2.00
2018-08-20T18:09:20.019Z,3.20
2018-08-20T18:11:49.238Z,4.53
2018-08-20T18:14:18.807Z,6.33
2018-08-20T18:16:47.525Z,5.77
2018-08-20T18:19:16.596Z,5.37
2018-08-20T18:21:45.372Z,6.60
2018-08-20T18:24:16.052Z,6.40
2018-08-20T18:26:52.383Z,5.67
2018-08-20T18:29:21.218Z,6.97
2018-08-20T18:31:57.287Z,6.37
2018-08-20T18:34:25.980Z,5.40
2018-08-20T18:53:37.194Z,7.97
2018-08-20T18:56:13.396Z,7.23
2018-08-20T18:58:42.789Z,5.47
2018-08-20T19:01:11.597Z,5.47
2018-08-20T19:03:45.386Z,7.13
2018-08-20T19:06:14.592Z,7.30
2018-08-20T19:08:43.528Z,5.60
2018-08-20T19:11:12.740Z,5.47
2018-08-20T19:13:41.838Z,12.70
2018-08-20T19:16:42.132Z,7.93
2018-08-20T19:19:10.987Z,8.80
2018-08-20T19:21:41.366Z,5.30
2018-08-20T19:24:10.584Z,6.30
2018-08-20T19:26:39.411Z,10.17
2018-08-20T19:29:32.001Z,7.93
2018-08-20T19:32:00.769Z,11.23
2018-08-20T19:34:29.441Z,8.17
2018-08-20T19:36:58.169Z,6.73
2018-08-20T19:39:26.871Z,8.40
2018-08-20T19:41:55.570Z,8.43
2018-08-20T19:44:24.268Z,8.53
2018-08-20T19:46:55.859Z,9.93
2018-08-20T19:49:24.651Z,13.60
2018-08-20T19:51:53.416Z,8.77
2018-08-20T19:54:22.040Z,13.07
2018-08-20T19:56:50.772Z,8.97
2018-08-20T19:59:38.644Z,7.27
2018-08-20T20:02:12.671Z,8.97
2018-08-20T20:04:41.362Z,12.77
2018-08-20T20:07:10.082Z,7.13
2018-08-20T20:09:38.801Z,9.83
2018-08-20T20:12:07.552Z,9.93
2018-08-20T20:14:44.374Z,14.07
2018-08-20T20:17:13.116Z,9.47
2018-08-20T20:19:41.842Z,7.03
2018-08-20T20:22:13.254Z,6.97
2018-08-20T20:24:41.987Z,5.47
2018-08-20T20:27:10.814Z,8.17
2018-08-20T20:29:39.568Z,8.37
2018-08-20T20:32:08.300Z,7.87
2018-08-20T20:51:20.152Z,7.27
2018-08-20T20:53:49.079Z,4.07
2018-08-20T20:56:17.776Z,3.93
2018-08-20T20:58:46.454Z,7.00
2018-08-20T21:01:15.207Z,9.23
2018-08-20T21:03:43.896Z,6.23
2018-08-20T21:06:12.580Z,4.80
2018-08-20T21:08:50.408Z,4.90
2018-08-20T21:11:20.492Z,12.13
2018-08-20T21:13:49.390Z,6.20
2018-08-20T21:16:21.868Z,8.40
2018-08-20T21:18:58.206Z,7.37
2018-08-20T21:21:27.693Z,12.37
2018-08-20T21:23:57.640Z,9.00
2018-08-20T21:26:26.381Z,7.30
2018-08-20T21:28:55.479Z,7.53
2018-08-20T21:31:26.163Z,6.33
2018-08-20T21:33:56.088Z,8.77
2018-08-20T21:36:24.800Z,10.70
2018-08-20T21:38:53.456Z,10.43
2018-08-20T21:41:29.989Z,8.47
2018-08-20T21:43:59.662Z,5.03
2018-08-20T21:46:28.313Z,6.00
2018-08-20T21:48:57.071Z,3.77
2018-08-20T21:51:27.413Z,4.70
2018-08-20T21:53:56.116Z,6.63
2018-08-20T21:56:25.104Z,9.43
2018-08-20T21:58:53.771Z,7.70
2018-08-20T22:01:22.624Z,3.97
2018-08-20T22:03:51.225Z,2.50
2018-08-20T22:06:19.928Z,6.27
2018-08-20T22:08:48.600Z,2.40
2018-08-20T22:11:17.291Z,6.90
2018-08-20T22:13:46.005Z,3.97
2018-08-20T22:16:20.431Z,7.73
2018-08-20T22:18:55.168Z,4.20
2018-08-20T22:21:24.007Z,6.60
2018-08-20T22:23:55.975Z,5.57
2018-08-20T22:26:24.671Z,4.20
2018-08-20T22:28:53.367Z,4.90
2018-08-20T22:31:22.085Z,4.23
2018-08-20T22:33:56.940Z,2.93
2018-08-20T22:36:26.160Z,9.53
2018-08-20T22:38:56.896Z,3.17
2018-08-20T22:41:26.685Z,8.67
2018-08-20T22:43:55.392Z,3.43
2018-08-20T22:46:24.544Z,7.10
2018-08-20T22:48:54.908Z,7.07
2018-08-20T22:51:24.739Z,7.63
2018-08-20T22:53:54.335Z,2.93
2018-08-20T22:56:24.497Z,6.90
2018-08-20T22:58:54.472Z,5.97
2018-08-20T23:01:23.136Z,2.43
2018-08-20T23:03:51.856Z,2.23
2018-08-20T23:06:20.597Z,3.07
2018-08-20T23:08:49.314Z,4.40
2018-08-20T23:11:33.055Z,4.43
2018-08-20T23:14:01.720Z,4.87
2018-08-20T23:16:30.371Z,5.77
2018-08-20T23:18:59.031Z,5.67
2018-08-20T23:21:32.296Z,6.13
2018-08-20T23:24:00.937Z,5.77
2018-08-20T23:26:29.595Z,5.07
2018-08-20T23:28:58.304Z,4.67
2018-08-20T23:31:26.972Z,5.53
2018-08-20T23:33:55.637Z,4.90
2018-08-20T23:36:24.303Z,8.77
2018-08-20T23:38:53.016Z,8.90
2018-08-20T23:41:21.756Z,4.30
2018-08-20T23:44:00.647Z,5.70
2018-08-20T23:46:50.321Z,4.73
2018-08-20T23:49:19.009Z,6.67
2018-08-20T23:51:47.715Z,6.67
2018-08-20T23:54:16.399Z,8.30
2018-08-20T23:56:45.112Z,3.37
2018-08-20T23:59:13.795Z,7.17
